sensor_id;sensor_type;location;lat;lon;timestamp;temperature;humidity
5938;DHT22;2994;51.220;4.412;2023-10-19T00:01:18;17.88;81.42
5938;DHT22;2994;51.220;4.412;2023-10-19T00:03:43;17.91;81.07
5938;DHT22;2994;51.220;4.412;2023-10-19T00:06:15;17.91;80.83
5938;DHT22;2994;51.220;4.412;2023-10-19T00:08:40;17.95;80.43
5938;DHT22;2994;51.220;4.412;2023-10-19T00:11:09;17.96;80.33
5938;DHT22;2994;51.220;4.412;2023-10-19T00:13:39;17.97;80.11
5938;DHT22;2994;51.220;4.412;2023-10-19T00:16:08;17.99;79.75
5938;DHT22;2994;51.220;4.412;2023-10-19T00:18:41;18.00;79.60
5938;DHT22;2994;51.220;4.412;2023-10-19T00:21:10;18.04;79.24
5938;DHT22;2994;51.220;4.412;2023-10-19T00:23:55;18.06;79.03
5938;DHT22;2994;51.220;4.412;2023-10-19T00:26:30;18.04;79.06
5938;DHT22;2994;51.220;4.412;2023-10-19T00:28:56;18.07;78.87
5938;DHT22;2994;51.220;4.412;2023-10-19T00:31:23;18.05;78.85
5938;DHT22;2994;51.220;4.412;2023-10-19T00:33:49;18.05;78.79
5938;DHT22;2994;51.220;4.412;2023-10-19T00:36:19;18.08;78.53
5938;DHT22;2994;51.220;4.412;2023-10-19T00:38:48;18.05;78.45
5938;DHT22;2994;51.220;4.412;2023-10-19T00:41:14;18.04;78.43
5938;DHT22;2994;51.220;4.412;2023-10-19T00:43:45;18.04;78.38
5938;DHT22;2994;51.220;4.412;2023-10-19T00:46:12;18.07;78.16
5938;DHT22;2994;51.220;4.412;2023-10-19T00:51:23;18.06;77.94
5938;DHT22;2994;51.220;4.412;2023-10-19T00:54:08;18.07;77.89
5938;DHT22;2994;51.220;4.412;2023-10-19T00:56:38;18.08;77.74
5938;DHT22;2994;51.220;4.412;2023-10-19T00:59:10;18.09;77.66
5938;DHT22;2994;51.220;4.412;2023-10-19T01:01:45;18.08;77.57
5938;DHT22;2994;51.220;4.412;2023-10-19T01:04:14;18.04;77.67
5938;DHT22;2994;51.220;4.412;2023-10-19T01:06:43;18.06;77.46
5938;DHT22;2994;51.220;4.412;2023-10-19T01:09:28;18.06;77.35
5938;DHT22;2994;51.220;4.412;2023-10-19T01:11:54;18.09;77.23
5938;DHT22;2994;51.220;4.412;2023-10-19T01:14:21;18.11;77.20
5938;DHT22;2994;51.220;4.412;2023-10-19T01:16:47;18.09;77.16
5938;DHT22;2994;51.220;4.412;2023-10-19T01:19:14;18.11;77.11
5938;DHT22;2994;51.220;4.412;2023-10-19T01:21:44;18.09;77.08
5938;DHT22;2994;51.220;4.412;2023-10-19T01:24:11;18.13;76.91
5938;DHT22;2994;51.220;4.412;2023-10-19T01:26:42;18.13;76.87
5938;DHT22;2994;51.220;4.412;2023-10-19T01:29:07;18.14;76.84
5938;DHT22;2994;51.220;4.412;2023-10-19T01:31:40;18.17;76.70
5938;DHT22;2994;51.220;4.412;2023-10-19T01:34:20;18.15;76.69
5938;DHT22;2994;51.220;4.412;2023-10-19T01:36:47;18.17;76.70
5938;DHT22;2994;51.220;4.412;2023-10-19T01:39:15;18.14;76.63
5938;DHT22;2994;51.220;4.412;2023-10-19T01:41:41;18.17;76.64
5938;DHT22;2994;51.220;4.412;2023-10-19T01:44:07;18.15;76.54
5938;DHT22;2994;51.220;4.412;2023-10-19T01:46:34;18.19;76.04
5938;DHT22;2994;51.220;4.412;2023-10-19T01:49:02;18.19;75.77
5938;DHT22;2994;51.220;4.412;2023-10-19T01:51:30;18.19;75.30
5938;DHT22;2994;51.220;4.412;2023-10-19T01:53:58;18.17;75.14
5938;DHT22;2994;51.220;4.412;2023-10-19T01:56:24;18.18;74.80
5938;DHT22;2994;51.220;4.412;2023-10-19T01:58:50;18.17;74.59
5938;DHT22;2994;51.220;4.412;2023-10-19T02:01:23;18.18;74.57
5938;DHT22;2994;51.220;4.412;2023-10-19T02:03:52;18.15;74.36
5938;DHT22;2994;51.220;4.412;2023-10-19T02:06:23;18.15;74.25
5938;DHT22;2994;51.220;4.412;2023-10-19T02:09:12;18.18;74.29
5938;DHT22;2994;51.220;4.412;2023-10-19T02:11:50;18.19;74.22
5938;DHT22;2994;51.220;4.412;2023-10-19T02:14:19;18.17;74.26
5938;DHT22;2994;51.220;4.412;2023-10-19T02:16:47;18.14;74.25
5938;DHT22;2994;51.220;4.412;2023-10-19T02:19:13;18.17;74.18
5938;DHT22;2994;51.220;4.412;2023-10-19T02:21:39;18.18;74.26
5938;DHT22;2994;51.220;4.412;2023-10-19T02:24:09;18.18;74.23
5938;DHT22;2994;51.220;4.412;2023-10-19T02:26:44;18.18;74.21
5938;DHT22;2994;51.220;4.412;2023-10-19T02:29:10;18.19;74.09
5938;DHT22;2994;51.220;4.412;2023-10-19T02:31:36;18.18;74.15
5938;DHT22;2994;51.220;4.412;2023-10-19T02:34:10;18.18;74.21
5938;DHT22;2994;51.220;4.412;2023-10-19T02:36:37;18.18;74.25
5938;DHT22;2994;51.220;4.412;2023-10-19T02:39:05;18.19;74.25
5938;DHT22;2994;51.220;4.412;2023-10-19T02:41:36;18.19;74.26
5938;DHT22;2994;51.220;4.412;2023-10-19T02:44:09;18.17;74.31
5938;DHT22;2994;51.220;4.412;2023-10-19T02:46:38;18.18;74.43
5938;DHT22;2994;51.220;4.412;2023-10-19T02:49:05;18.18;74.54
5938;DHT22;2994;51.220;4.412;2023-10-19T02:51:44;18.17;74.58
5938;DHT22;2994;51.220;4.412;2023-10-19T02:54:12;18.14;74.76
5938;DHT22;2994;51.220;4.412;2023-10-19T02:56:45;18.12;74.79
5938;DHT22;2994;51.220;4.412;2023-10-19T02:59:17;18.11;74.84
5938;DHT22;2994;51.220;4.412;2023-10-19T03:01:47;18.10;74.84
5938;DHT22;2994;51.220;4.412;2023-10-19T03:04:13;18.09;74.92
5938;DHT22;2994;51.220;4.412;2023-10-19T03:06:40;18.08;74.88
5938;DHT22;2994;51.220;4.412;2023-10-19T03:09:07;18.08;74.90
5938;DHT22;2994;51.220;4.412;2023-10-19T03:11:42;18.08;74.92
5938;DHT22;2994;51.220;4.412;2023-10-19T03:14:08;18.07;74.99
5938;DHT22;2994;51.220;4.412;2023-10-19T03:16:37;18.05;75.00
5938;DHT22;2994;51.220;4.412;2023-10-19T03:19:05;18.04;74.94
5938;DHT22;2994;51.220;4.412;2023-10-19T03:21:33;18.00;74.97
5938;DHT22;2994;51.220;4.412;2023-10-19T03:24:07;17.98;75.00
5938;DHT22;2994;51.220;4.412;2023-10-19T03:26:37;17.99;74.93
5938;DHT22;2994;51.220;4.412;2023-10-19T03:29:03;17.97;74.91
5938;DHT22;2994;51.220;4.412;2023-10-19T03:31:37;17.96;74.92
5938;DHT22;2994;51.220;4.412;2023-10-19T03:34:12;17.95;74.97
5938;DHT22;2994;51.220;4.412;2023-10-19T03:36:43;17.95;74.93
5938;DHT22;2994;51.220;4.412;2023-10-19T03:39:09;17.92;74.93
5938;DHT22;2994;51.220;4.412;2023-10-19T03:41:39;17.94;74.88
5938;DHT22;2994;51.220;4.412;2023-10-19T03:44:08;17.94;74.84
5938;DHT22;2994;51.220;4.412;2023-10-19T03:46:39;17.94;74.89
5938;DHT22;2994;51.220;4.412;2023-10-19T03:49:20;17.96;74.81
5938;DHT22;2994;51.220;4.412;2023-10-19T03:51:46;17.96;74.83
5938;DHT22;2994;51.220;4.412;2023-10-19T03:54:28;17.97;74.76
5938;DHT22;2994;51.220;4.412;2023-10-19T03:56:54;17.96;74.84
5938;DHT22;2994;51.220;4.412;2023-10-19T03:59:22;17.96;74.79
5938;DHT22;2994;51.220;4.412;2023-10-19T04:01:48;17.97;74.76
5938;DHT22;2994;51.220;4.412;2023-10-19T04:04:14;17.97;74.73
5938;DHT22;2994;51.220;4.412;2023-10-19T04:06:41;17.99;74.64
5938;DHT22;2994;51.220;4.412;2023-10-19T04:09:12;17.97;74.54
5938;DHT22;2994;51.220;4.412;2023-10-19T04:11:40;17.98;74.56
5938;DHT22;2994;51.220;4.412;2023-10-19T04:14:15;17.99;74.38
5938;DHT22;2994;51.220;4.412;2023-10-19T04:16:42;18.02;74.40
5938;DHT22;2994;51.220;4.412;2023-10-19T04:19:13;18.00;74.53
5938;DHT22;2994;51.220;4.412;2023-10-19T04:21:38;18.00;74.27
5938;DHT22;2994;51.220;4.412;2023-10-19T04:24:08;17.99;74.27
5938;DHT22;2994;51.220;4.412;2023-10-19T04:26:34;18.04;74.10
5938;DHT22;2994;51.220;4.412;2023-10-19T04:29:03;18.02;74.28
5938;DHT22;2994;51.220;4.412;2023-10-19T04:31:37;18.03;74.25
5938;DHT22;2994;51.220;4.412;2023-10-19T04:34:03;18.04;74.28
5938;DHT22;2994;51.220;4.412;2023-10-19T04:36:33;18.04;74.31
5938;DHT22;2994;51.220;4.412;2023-10-19T04:38:59;18.04;74.34
5938;DHT22;2994;51.220;4.412;2023-10-19T04:41:25;18.05;74.39
5938;DHT22;2994;51.220;4.412;2023-10-19T04:43:52;18.05;74.52
5938;DHT22;2994;51.220;4.412;2023-10-19T04:46:19;18.06;74.44
5938;DHT22;2994;51.220;4.412;2023-10-19T04:48:45;18.04;74.53
5938;DHT22;2994;51.220;4.412;2023-10-19T04:51:10;18.07;74.49
5938;DHT22;2994;51.220;4.412;2023-10-19T04:53:36;18.08;74.49
5938;DHT22;2994;51.220;4.412;2023-10-19T04:56:03;18.09;74.54
5938;DHT22;2994;51.220;4.412;2023-10-19T04:58:30;18.09;74.53
5938;DHT22;2994;51.220;4.412;2023-10-19T05:00:55;18.10;74.55
5938;DHT22;2994;51.220;4.412;2023-10-19T05:03:23;18.13;74.51
5938;DHT22;2994;51.220;4.412;2023-10-19T05:05:49;18.11;74.63
5938;DHT22;2994;51.220;4.412;2023-10-19T05:08:14;18.15;74.56
5938;DHT22;2994;51.220;4.412;2023-10-19T05:10:40;18.14;74.61
5938;DHT22;2994;51.220;4.412;2023-10-19T05:13:07;18.12;74.80
5938;DHT22;2994;51.220;4.412;2023-10-19T05:15:32;18.12;74.83
5938;DHT22;2994;51.220;4.412;2023-10-19T05:17:59;18.12;74.88
5938;DHT22;2994;51.220;4.412;2023-10-19T05:20:25;18.12;74.96
5938;DHT22;2994;51.220;4.412;2023-10-19T05:22:51;18.11;75.03
5938;DHT22;2994;51.220;4.412;2023-10-19T05:25:16;18.12;75.08
5938;DHT22;2994;51.220;4.412;2023-10-19T05:27:41;18.12;74.99
5938;DHT22;2994;51.220;4.412;2023-10-19T05:30:08;18.14;75.01
5938;DHT22;2994;51.220;4.412;2023-10-19T05:32:36;18.14;75.09
5938;DHT22;2994;51.220;4.412;2023-10-19T05:35:02;18.13;75.17
5938;DHT22;2994;51.220;4.412;2023-10-19T05:37:30;18.13;75.26
5938;DHT22;2994;51.220;4.412;2023-10-19T05:39:56;18.14;75.28
5938;DHT22;2994;51.220;4.412;2023-10-19T05:42:21;18.14;75.28
5938;DHT22;2994;51.220;4.412;2023-10-19T05:44:47;18.14;75.34
5938;DHT22;2994;51.220;4.412;2023-10-19T05:47:12;18.13;75.40
5938;DHT22;2994;51.220;4.412;2023-10-19T05:49:38;18.14;75.31
5938;DHT22;2994;51.220;4.412;2023-10-19T05:52:03;18.15;75.34
5938;DHT22;2994;51.220;4.412;2023-10-19T05:54:29;18.15;75.37
5938;DHT22;2994;51.220;4.412;2023-10-19T05:56:54;18.17;75.31
5938;DHT22;2994;51.220;4.412;2023-10-19T05:59:20;18.17;75.40
5938;DHT22;2994;51.220;4.412;2023-10-19T06:01:45;18.17;75.39
5938;DHT22;2994;51.220;4.412;2023-10-19T06:04:14;18.17;75.49
5938;DHT22;2994;51.220;4.412;2023-10-19T06:06:39;18.14;75.56
5938;DHT22;2994;51.220;4.412;2023-10-19T06:09:05;18.14;75.57
5938;DHT22;2994;51.220;4.412;2023-10-19T06:11:33;18.17;75.54
5938;DHT22;2994;51.220;4.412;2023-10-19T06:14:01;18.17;75.52
5938;DHT22;2994;51.220;4.412;2023-10-19T06:16:27;18.18;75.52
5938;DHT22;2994;51.220;4.412;2023-10-19T06:18:53;18.19;75.58
5938;DHT22;2994;51.220;4.412;2023-10-19T06:21:18;18.20;75.56
5938;DHT22;2994;51.220;4.412;2023-10-19T06:23:44;18.20;75.55
5938;DHT22;2994;51.220;4.412;2023-10-19T06:26:10;18.20;75.60
5938;DHT22;2994;51.220;4.412;2023-10-19T06:28:40;18.19;75.60
5938;DHT22;2994;51.220;4.412;2023-10-19T06:31:06;18.19;75.71
5938;DHT22;2994;51.220;4.412;2023-10-19T06:33:32;18.21;75.68
5938;DHT22;2994;51.220;4.412;2023-10-19T06:35:59;18.23;75.67
5938;DHT22;2994;51.220;4.412;2023-10-19T06:38:24;18.21;75.76
5938;DHT22;2994;51.220;4.412;2023-10-19T06:40:51;18.22;75.79
5938;DHT22;2994;51.220;4.412;2023-10-19T06:43:17;18.22;75.76
5938;DHT22;2994;51.220;4.412;2023-10-19T06:45:44;18.24;75.76
5938;DHT22;2994;51.220;4.412;2023-10-19T06:48:10;18.24;75.63
5938;DHT22;2994;51.220;4.412;2023-10-19T06:50:36;18.25;75.61
5938;DHT22;2994;51.220;4.412;2023-10-19T06:53:03;18.27;75.58
5938;DHT22;2994;51.220;4.412;2023-10-19T06:55:30;18.29;75.55
5938;DHT22;2994;51.220;4.412;2023-10-19T06:57:56;18.29;75.51
5938;DHT22;2994;51.220;4.412;2023-10-19T07:00:23;18.33;75.37
5938;DHT22;2994;51.220;4.412;2023-10-19T07:02:54;18.33;75.26
5938;DHT22;2994;51.220;4.412;2023-10-19T07:05:22;18.35;75.26
5938;DHT22;2994;51.220;4.412;2023-10-19T07:07:50;18.35;75.26
5938;DHT22;2994;51.220;4.412;2023-10-19T07:10:18;18.34;75.38
5938;DHT22;2994;51.220;4.412;2023-10-19T07:12:47;18.34;75.47
5938;DHT22;2994;51.220;4.412;2023-10-19T07:15:13;18.34;75.47
5938;DHT22;2994;51.220;4.412;2023-10-19T07:17:47;18.33;75.38
5938;DHT22;2994;51.220;4.412;2023-10-19T07:20:15;18.33;75.41
5938;DHT22;2994;51.220;4.412;2023-10-19T07:23:12;18.36;75.39
5938;DHT22;2994;51.220;4.412;2023-10-19T07:25:50;18.34;75.47
5938;DHT22;2994;51.220;4.412;2023-10-19T07:28:25;18.35;75.35
5938;DHT22;2994;51.220;4.412;2023-10-19T07:30:52;18.36;75.40
5938;DHT22;2994;51.220;4.412;2023-10-19T07:33:18;18.38;75.34
5938;DHT22;2994;51.220;4.412;2023-10-19T07:35:45;18.40;75.45
5938;DHT22;2994;51.220;4.412;2023-10-19T07:38:15;18.41;75.63
5938;DHT22;2994;51.220;4.412;2023-10-19T07:40:42;18.43;75.55
5938;DHT22;2994;51.220;4.412;2023-10-19T07:43:09;18.46;75.49
5938;DHT22;2994;51.220;4.412;2023-10-19T07:45:35;18.48;75.40
5938;DHT22;2994;51.220;4.412;2023-10-19T07:48:02;18.50;75.34
5938;DHT22;2994;51.220;4.412;2023-10-19T07:50:32;18.54;75.33
5938;DHT22;2994;51.220;4.412;2023-10-19T07:52:58;18.55;75.38
5938;DHT22;2994;51.220;4.412;2023-10-19T07:55:24;18.56;75.47
5938;DHT22;2994;51.220;4.412;2023-10-19T07:57:50;18.55;75.45
5938;DHT22;2994;51.220;4.412;2023-10-19T08:00:16;18.59;75.32
5938;DHT22;2994;51.220;4.412;2023-10-19T08:02:43;18.63;75.15
5938;DHT22;2994;51.220;4.412;2023-10-19T08:05:13;18.64;75.12
5938;DHT22;2994;51.220;4.412;2023-10-19T08:07:40;18.66;75.08
5938;DHT22;2994;51.220;4.412;2023-10-19T08:10:09;18.69;75.09
5938;DHT22;2994;51.220;4.412;2023-10-19T08:12:39;18.72;75.02
5938;DHT22;2994;51.220;4.412;2023-10-19T08:15:11;18.74;75.09
5938;DHT22;2994;51.220;4.412;2023-10-19T08:17:44;18.79;75.02
5938;DHT22;2994;51.220;4.412;2023-10-19T08:20:11;18.80;74.92
5938;DHT22;2994;51.220;4.412;2023-10-19T08:22:58;18.85;74.72
5938;DHT22;2994;51.220;4.412;2023-10-19T08:25:25;18.89;74.67
5938;DHT22;2994;51.220;4.412;2023-10-19T08:27:54;18.95;74.46
5938;DHT22;2994;51.220;4.412;2023-10-19T08:30:22;18.95;74.41
5938;DHT22;2994;51.220;4.412;2023-10-19T08:32:48;18.98;74.38
5938;DHT22;2994;51.220;4.412;2023-10-19T08:35:19;19.01;74.29
5938;DHT22;2994;51.220;4.412;2023-10-19T08:37:51;19.03;74.11
5938;DHT22;2994;51.220;4.412;2023-10-19T08:40:18;19.02;74.12
5938;DHT22;2994;51.220;4.412;2023-10-19T08:42:45;19.02;74.15
5938;DHT22;2994;51.220;4.412;2023-10-19T08:45:11;19.01;74.15
5938;DHT22;2994;51.220;4.412;2023-10-19T08:47:56;19.00;74.16
5938;DHT22;2994;51.220;4.412;2023-10-19T08:50:24;19.00;74.12
5938;DHT22;2994;51.220;4.412;2023-10-19T08:52:52;19.00;74.13
5938;DHT22;2994;51.220;4.412;2023-10-19T08:55:19;19.05;74.08
5938;DHT22;2994;51.220;4.412;2023-10-19T08:57:46;19.07;73.92
5938;DHT22;2994;51.220;4.412;2023-10-19T09:00:14;19.09;73.80
5938;DHT22;2994;51.220;4.412;2023-10-19T09:02:43;19.13;73.38
5938;DHT22;2994;51.220;4.412;2023-10-19T09:05:08;19.18;73.31
5938;DHT22;2994;51.220;4.412;2023-10-19T09:07:34;19.24;73.16
5938;DHT22;2994;51.220;4.412;2023-10-19T09:10:00;19.27;73.16
5938;DHT22;2994;51.220;4.412;2023-10-19T09:12:31;19.32;73.00
5938;DHT22;2994;51.220;4.412;2023-10-19T09:14:56;19.37;73.03
5938;DHT22;2994;51.220;4.412;2023-10-19T09:17:29;19.37;72.91
5938;DHT22;2994;51.220;4.412;2023-10-19T09:19:55;19.39;72.83
5938;DHT22;2994;51.220;4.412;2023-10-19T09:22:21;19.42;72.77
5938;DHT22;2994;51.220;4.412;2023-10-19T09:24:50;19.44;72.71
5938;DHT22;2994;51.220;4.412;2023-10-19T09:27:19;19.51;72.53
5938;DHT22;2994;51.220;4.412;2023-10-19T09:29:44;19.53;72.51
5938;DHT22;2994;51.220;4.412;2023-10-19T09:32:10;19.54;72.46
5938;DHT22;2994;51.220;4.412;2023-10-19T09:34:39;19.55;72.45
5938;DHT22;2994;51.220;4.412;2023-10-19T09:37:06;19.53;72.43
5938;DHT22;2994;51.220;4.412;2023-10-19T09:39:32;19.57;72.34
5938;DHT22;2994;51.220;4.412;2023-10-19T09:42:06;19.58;72.25
5938;DHT22;2994;51.220;4.412;2023-10-19T09:44:41;19.62;71.94
5938;DHT22;2994;51.220;4.412;2023-10-19T09:47:16;19.67;71.92
5938;DHT22;2994;51.220;4.412;2023-10-19T09:49:44;19.67;71.84
5938;DHT22;2994;51.220;4.412;2023-10-19T09:52:11;19.61;71.90
5938;DHT22;2994;51.220;4.412;2023-10-19T09:54:52;19.59;72.04
5938;DHT22;2994;51.220;4.412;2023-10-19T09:57:44;19.59;72.08
5938;DHT22;2994;51.220;4.412;2023-10-19T10:00:12;19.57;72.03
5938;DHT22;2994;51.220;4.412;2023-10-19T10:02:44;19.55;72.16
5938;DHT22;2994;51.220;4.412;2023-10-19T10:05:44;19.59;72.22
5938;DHT22;2994;51.220;4.412;2023-10-19T10:10:45;19.56;72.14
5938;DHT22;2994;51.220;4.412;2023-10-19T10:15:52;19.58;72.15
5938;DHT22;2994;51.220;4.412;2023-10-19T10:18:18;19.60;72.16
5938;DHT22;2994;51.220;4.412;2023-10-19T10:20:44;19.58;72.07
5938;DHT22;2994;51.220;4.412;2023-10-19T10:23:17;19.57;72.16
5938;DHT22;2994;51.220;4.412;2023-10-19T10:25:46;19.55;72.18
5938;DHT22;2994;51.220;4.412;2023-10-19T10:28:14;19.53;72.32
5938;DHT22;2994;51.220;4.412;2023-10-19T10:33:38;19.58;72.03
5938;DHT22;2994;51.220;4.412;2023-10-19T10:36:07;19.62;71.90
5938;DHT22;2994;51.220;4.412;2023-10-19T10:38:35;19.65;71.93
5938;DHT22;2994;51.220;4.412;2023-10-19T10:41:01;19.70;71.65
5938;DHT22;2994;51.220;4.412;2023-10-19T10:43:27;19.76;71.58
5938;DHT22;2994;51.220;4.412;2023-10-19T10:46:05;19.77;71.64
5938;DHT22;2994;51.220;4.412;2023-10-19T10:48:32;19.80;71.48
5938;DHT22;2994;51.220;4.412;2023-10-19T10:50:58;19.89;71.32
5938;DHT22;2994;51.220;4.412;2023-10-19T10:53:24;19.86;71.24
5938;DHT22;2994;51.220;4.412;2023-10-19T10:55:53;19.87;71.06
5938;DHT22;2994;51.220;4.412;2023-10-19T10:58:19;19.94;71.02
5938;DHT22;2994;51.220;4.412;2023-10-19T11:00:45;19.98;70.97
5938;DHT22;2994;51.220;4.412;2023-10-19T11:03:16;19.90;71.32
5938;DHT22;2994;51.220;4.412;2023-10-19T11:05:42;19.98;70.90
5938;DHT22;2994;51.220;4.412;2023-10-19T11:08:13;19.97;71.03
5938;DHT22;2994;51.220;4.412;2023-10-19T11:10:42;20.03;70.93
5938;DHT22;2994;51.220;4.412;2023-10-19T11:13:12;20.06;70.80
5938;DHT22;2994;51.220;4.412;2023-10-19T11:15:48;20.09;70.76
5938;DHT22;2994;51.220;4.412;2023-10-19T11:18:28;20.07;70.73
5938;DHT22;2994;51.220;4.412;2023-10-19T11:20:54;20.09;70.55
5938;DHT22;2994;51.220;4.412;2023-10-19T11:23:34;20.09;70.69
5938;DHT22;2994;51.220;4.412;2023-10-19T11:26:00;20.07;70.63
5938;DHT22;2994;51.220;4.412;2023-10-19T11:28:27;20.09;70.59
5938;DHT22;2994;51.220;4.412;2023-10-19T11:30:54;20.07;70.64
5938;DHT22;2994;51.220;4.412;2023-10-19T11:33:20;20.05;70.77
5938;DHT22;2994;51.220;4.412;2023-10-19T11:35:49;20.02;70.82
5938;DHT22;2994;51.220;4.412;2023-10-19T11:38:15;19.99;71.28
5938;DHT22;2994;51.220;4.412;2023-10-19T11:40:41;19.97;71.41
5938;DHT22;2994;51.220;4.412;2023-10-19T11:43:07;19.92;71.85
5938;DHT22;2994;51.220;4.412;2023-10-19T11:45:32;19.91;72.21
5938;DHT22;2994;51.220;4.412;2023-10-19T11:48:00;19.92;72.30
5938;DHT22;2994;51.220;4.412;2023-10-19T11:50:26;19.89;72.53
5938;DHT22;2994;51.220;4.412;2023-10-19T11:52:52;19.86;72.86
5938;DHT22;2994;51.220;4.412;2023-10-19T11:55:17;19.85;73.22
5938;DHT22;2994;51.220;4.412;2023-10-19T11:57:43;19.84;73.35
5938;DHT22;2994;51.220;4.412;2023-10-19T12:00:10;19.82;73.70
5938;DHT22;2994;51.220;4.412;2023-10-19T12:02:39;19.83;73.83
5938;DHT22;2994;51.220;4.412;2023-10-19T12:05:07;19.82;74.08
5938;DHT22;2994;51.220;4.412;2023-10-19T12:07:39;19.81;73.98
5938;DHT22;2994;51.220;4.412;2023-10-19T12:10:06;19.80;73.99
5938;DHT22;2994;51.220;4.412;2023-10-19T12:12:33;19.79;74.06
5938;DHT22;2994;51.220;4.412;2023-10-19T12:14:59;19.81;74.06
5938;DHT22;2994;51.220;4.412;2023-10-19T12:17:24;19.80;74.18
5938;DHT22;2994;51.220;4.412;2023-10-19T12:19:52;19.76;74.30
5938;DHT22;2994;51.220;4.412;2023-10-19T12:22:17;19.79;74.38
5938;DHT22;2994;51.220;4.412;2023-10-19T12:24:42;19.72;74.79
5938;DHT22;2994;51.220;4.412;2023-10-19T12:27:09;19.81;74.32
5938;DHT22;2994;51.220;4.412;2023-10-19T12:29:35;19.75;74.67
5938;DHT22;2994;51.220;4.412;2023-10-19T12:32:00;19.82;74.54
5938;DHT22;2994;51.220;4.412;2023-10-19T12:34:25;19.85;74.54
5938;DHT22;2994;51.220;4.412;2023-10-19T12:36:55;19.85;74.70
5938;DHT22;2994;51.220;4.412;2023-10-19T12:39:22;19.86;74.77
5938;DHT22;2994;51.220;4.412;2023-10-19T12:42:01;19.82;75.01
5938;DHT22;2994;51.220;4.412;2023-10-19T12:44:26;19.84;75.02
5938;DHT22;2994;51.220;4.412;2023-10-19T12:46:55;19.82;75.02
5938;DHT22;2994;51.220;4.412;2023-10-19T12:49:22;19.80;75.06
5938;DHT22;2994;51.220;4.412;2023-10-19T12:51:51;19.76;75.25
5938;DHT22;2994;51.220;4.412;2023-10-19T12:54:17;19.77;75.23
5938;DHT22;2994;51.220;4.412;2023-10-19T12:56:43;19.80;75.33
5938;DHT22;2994;51.220;4.412;2023-10-19T12:59:08;19.80;75.44
5938;DHT22;2994;51.220;4.412;2023-10-19T13:01:34;19.82;75.23
5938;DHT22;2994;51.220;4.412;2023-10-19T13:04:01;19.85;75.34
5938;DHT22;2994;51.220;4.412;2023-10-19T13:06:30;19.86;75.32
5938;DHT22;2994;51.220;4.412;2023-10-19T13:08:56;19.90;75.39
5938;DHT22;2994;51.220;4.412;2023-10-19T13:11:23;20.00;75.23
5938;DHT22;2994;51.220;4.412;2023-10-19T13:13:48;19.99;75.34
5938;DHT22;2994;51.220;4.412;2023-10-19T13:16:15;19.99;75.48
5938;DHT22;2994;51.220;4.412;2023-10-19T13:18:40;19.98;75.68
5938;DHT22;2994;51.220;4.412;2023-10-19T13:21:06;20.02;75.75
5938;DHT22;2994;51.220;4.412;2023-10-19T13:23:34;20.13;75.41
5938;DHT22;2994;51.220;4.412;2023-10-19T13:26:01;20.24;75.14
5938;DHT22;2994;51.220;4.412;2023-10-19T13:28:34;20.33;74.99
5938;DHT22;2994;51.220;4.412;2023-10-19T13:31:04;20.42;74.75
5938;DHT22;2994;51.220;4.412;2023-10-19T13:33:29;20.53;74.63
5938;DHT22;2994;51.220;4.412;2023-10-19T13:35:55;20.46;74.89
5938;DHT22;2994;51.220;4.412;2023-10-19T13:38:20;20.40;74.97
5938;DHT22;2994;51.220;4.412;2023-10-19T13:40:46;20.36;74.99
5938;DHT22;2994;51.220;4.412;2023-10-19T13:43:13;20.42;74.92
5938;DHT22;2994;51.220;4.412;2023-10-19T13:45:44;20.32;74.99
5938;DHT22;2994;51.220;4.412;2023-10-19T13:48:11;20.47;74.11
5938;DHT22;2994;51.220;4.412;2023-10-19T13:50:42;20.46;74.06
5938;DHT22;2994;51.220;4.412;2023-10-19T13:53:11;20.37;74.15
5938;DHT22;2994;51.220;4.412;2023-10-19T13:55:36;20.54;73.63
5938;DHT22;2994;51.220;4.412;2023-10-19T13:58:02;20.58;73.48
5938;DHT22;2994;51.220;4.412;2023-10-19T14:00:28;20.59;73.24
5938;DHT22;2994;51.220;4.412;2023-10-19T14:03:01;20.65;73.19
5938;DHT22;2994;51.220;4.412;2023-10-19T14:05:29;20.71;72.93
5938;DHT22;2994;51.220;4.412;2023-10-19T14:07:55;20.73;73.01
5938;DHT22;2994;51.220;4.412;2023-10-19T14:10:21;20.72;72.96
5938;DHT22;2994;51.220;4.412;2023-10-19T14:12:48;20.65;73.35
5938;DHT22;2994;51.220;4.412;2023-10-19T14:15:16;20.69;73.25
5938;DHT22;2994;51.220;4.412;2023-10-19T14:17:43;20.64;73.38
5938;DHT22;2994;51.220;4.412;2023-10-19T14:20:10;20.69;73.27
5938;DHT22;2994;51.220;4.412;2023-10-19T14:22:39;20.80;73.03
5938;DHT22;2994;51.220;4.412;2023-10-19T14:25:06;20.87;72.72
5938;DHT22;2994;51.220;4.412;2023-10-19T14:27:33;20.92;72.55
5938;DHT22;2994;51.220;4.412;2023-10-19T14:30:00;20.92;72.62
5938;DHT22;2994;51.220;4.412;2023-10-19T14:32:25;20.95;72.54
5938;DHT22;2994;51.220;4.412;2023-10-19T14:34:52;21.00;72.52
5938;DHT22;2994;51.220;4.412;2023-10-19T14:37:19;21.02;72.33
5938;DHT22;2994;51.220;4.412;2023-10-19T14:39:44;21.02;72.36
5938;DHT22;2994;51.220;4.412;2023-10-19T14:42:10;21.05;72.13
5938;DHT22;2994;51.220;4.412;2023-10-19T14:44:36;21.06;72.19
5938;DHT22;2994;51.220;4.412;2023-10-19T14:47:01;21.00;72.27
5938;DHT22;2994;51.220;4.412;2023-10-19T14:49:29;21.00;72.21
5938;DHT22;2994;51.220;4.412;2023-10-19T14:51:55;21.02;72.16
5938;DHT22;2994;51.220;4.412;2023-10-19T14:54:21;21.02;71.90
5938;DHT22;2994;51.220;4.412;2023-10-19T14:56:46;21.01;71.84
5938;DHT22;2994;51.220;4.412;2023-10-19T14:59:12;20.91;71.93
5938;DHT22;2994;51.220;4.412;2023-10-19T15:01:38;20.79;72.28
5938;DHT22;2994;51.220;4.412;2023-10-19T15:04:04;20.85;72.09
5938;DHT22;2994;51.220;4.412;2023-10-19T15:06:31;20.86;72.13
5938;DHT22;2994;51.220;4.412;2023-10-19T15:08:56;20.83;72.30
5938;DHT22;2994;51.220;4.412;2023-10-19T15:11:22;20.85;72.29
5938;DHT22;2994;51.220;4.412;2023-10-19T15:13:50;20.90;72.18
5938;DHT22;2994;51.220;4.412;2023-10-19T15:16:16;20.96;72.05
5938;DHT22;2994;51.220;4.412;2023-10-19T15:18:42;20.98;71.95
5938;DHT22;2994;51.220;4.412;2023-10-19T15:21:11;20.92;71.82
5938;DHT22;2994;51.220;4.412;2023-10-19T15:23:39;21.00;71.49
5938;DHT22;2994;51.220;4.412;2023-10-19T15:26:06;21.02;70.95
5938;DHT22;2994;51.220;4.412;2023-10-19T15:28:32;20.98;71.12
5938;DHT22;2994;51.220;4.412;2023-10-19T15:30:59;20.99;71.12
5938;DHT22;2994;51.220;4.412;2023-10-19T15:33:26;21.05;70.87
5938;DHT22;2994;51.220;4.412;2023-10-19T15:35:52;20.95;71.16
5938;DHT22;2994;51.220;4.412;2023-10-19T15:38:19;20.98;71.22
5938;DHT22;2994;51.220;4.412;2023-10-19T15:40:45;20.98;71.15
5938;DHT22;2994;51.220;4.412;2023-10-19T15:43:10;20.93;71.19
5938;DHT22;2994;51.220;4.412;2023-10-19T15:45:35;20.86;71.22
5938;DHT22;2994;51.220;4.412;2023-10-19T15:48:05;20.86;71.28
5938;DHT22;2994;51.220;4.412;2023-10-19T15:50:31;20.86;71.37
5938;DHT22;2994;51.220;4.412;2023-10-19T15:53:00;20.84;71.36
5938;DHT22;2994;51.220;4.412;2023-10-19T15:55:25;20.80;71.36
5938;DHT22;2994;51.220;4.412;2023-10-19T15:57:51;20.76;71.36
5938;DHT22;2994;51.220;4.412;2023-10-19T16:00:19;20.69;71.62
5938;DHT22;2994;51.220;4.412;2023-10-19T16:02:45;20.68;71.58
5938;DHT22;2994;51.220;4.412;2023-10-19T16:05:11;20.64;71.79
5938;DHT22;2994;51.220;4.412;2023-10-19T16:07:36;20.61;71.89
5938;DHT22;2994;51.220;4.412;2023-10-19T16:10:05;20.57;71.95
5938;DHT22;2994;51.220;4.412;2023-10-19T16:12:31;20.55;72.13
5938;DHT22;2994;51.220;4.412;2023-10-19T16:14:57;20.35;72.90
5938;DHT22;2994;51.220;4.412;2023-10-19T16:17:22;20.37;72.92
5938;DHT22;2994;51.220;4.412;2023-10-19T16:19:47;20.40;72.71